Time;durP1;ratioP1;P1;durP2;ratioP2;P2;SDS_P1;SDS_P2;PMS_P1;PMS_P2;Temp;Humidity;BMP_temperature;BMP_pressure;BME280_temperature;BME280_humidity;BME280_pressure;Samples;Min_cycle;Max_cycle;Signal;HPM_P1;HPM_P2
2022/10/26 00:00:25;;;;;;;2.65;1.80;;;;;;;19.04;57.68;101434.31;5063348;28;20048;-48
2022/10/26 00:02:50;;;;;;;3.85;1.63;;;;;;;18.85;57.67;101401.13;5063476;28;20037;-50
2022/10/26 00:05:16;;;;;;;2.92;1.77;;;;;;;18.95;57.78;101420.78;5063854;28;20036;-51
2022/10/26 00:07:41;;;;;;;2.50;1.67;;;;;;;18.90;57.63;101414.13;5063001;28;20057;-52
2022/10/26 00:10:07;;;;;;;2.50;1.58;;;;;;;19.02;57.42;101425.50;5064002;28;20612;-50
2022/10/26 00:12:32;;;;;;;2.97;2.00;;;;;;;18.89;57.51;101402.50;5063588;28;20037;-51
2022/10/26 00:14:57;;;;;;;2.90;1.75;;;;;;;19.00;57.42;101414.06;5044406;28;20519;-50
2022/10/26 00:17:22;;;;;;;2.63;1.50;;;;;;;18.94;57.49;101419.06;5056502;28;20035;-48
2022/10/26 00:19:48;;;;;;;2.85;1.88;;;;;;;18.98;57.67;101420.44;5063464;28;20025;-52
2022/10/26 00:22:13;;;;;;;3.35;1.90;;;;;;;18.98;57.49;101419.59;5063020;28;20066;-53
2022/10/26 00:24:38;;;;;;;2.30;1.60;;;;;;;18.97;57.13;101418.75;5063221;28;20163;-52
2022/10/26 00:27:03;;;;;;;2.08;1.48;;;;;;;18.97;57.52;101418.75;5063105;28;20025;-49
2022/10/26 00:29:29;;;;;;;1.80;1.50;;;;;;;18.97;57.26;101420.59;5062998;28;20033;-50
2022/10/26 00:31:54;;;;;;;2.38;1.60;;;;;;;18.96;57.27;101422.44;5063485;28;20027;-51
2022/10/26 00:34:19;;;;;;;2.88;1.70;;;;;;;18.97;57.73;101417.91;5063370;28;20088;-48
2022/10/26 00:36:44;;;;;;;2.65;1.70;;;;;;;18.96;57.47;101418.91;5063437;28;20689;-48
2022/10/26 00:39:11;;;;;;;2.95;1.50;;;;;;;18.95;57.21;101411.84;5063152;28;20037;-50
2022/10/26 00:41:37;;;;;;;3.10;1.75;;;;;;;18.94;57.41;101407.44;5063395;28;20040;-50
2022/10/26 00:44:40;;;;;;;2.75;1.73;;;;;;;18.93;57.63;101408.44;5062672;28;20037;-47
2022/10/26 00:47:08;;;;;;;1.90;1.50;;;;;;;18.94;57.46;101402.03;5063301;28;20025;-47
2022/10/26 00:49:34;;;;;;;1.50;1.38;;;;;;;18.92;57.48;101396.81;5062042;28;20029;-47
2022/10/26 00:51:59;;;;;;;2.78;1.60;;;;;;;18.91;57.24;101399.69;5063311;28;20036;-46
2022/10/26 00:54:24;;;;;;;4.05;2.22;;;;;;;18.91;57.35;101397.84;5063216;28;20089;-49
2022/10/26 00:56:51;;;;;;;2.67;1.55;;;;;;;18.91;57.45;101391.59;5063108;28;20545;-50
2022/10/26 00:59:16;;;;;;;1.75;1.50;;;;;;;18.90;57.50;101392.56;5062498;28;20029;-49
2022/10/26 01:01:43;;;;;;;2.38;1.50;;;;;;;18.90;57.19;101400.66;5061701;28;20076;-49
2022/10/26 01:04:08;;;;;;;2.80;1.70;;;;;;;18.89;57.49;101389.03;5064774;28;20029;-49
2022/10/26 01:06:36;;;;;;;2.13;1.55;;;;;;;18.88;57.18;101387.34;5067023;28;20025;-53
2022/10/26 01:09:01;;;;;;;3.35;2.00;;;;;;;18.88;57.18;101400.84;5066639;28;20033;-52
2022/10/26 01:11:27;;;;;;;2.70;1.70;;;;;;;18.84;57.27;101379.75;5065732;28;20029;-53
2022/10/26 01:13:53;;;;;;;3.17;1.50;;;;;;;18.87;57.25;101385.69;5064483;28;20074;-53
2022/10/26 01:16:36;;;;;;;1.48;1.33;;;;;;;18.85;57.19;101373.34;5045853;28;20028;-53
2022/10/26 01:19:36;;;;;;;2.15;1.45;;;;;;;18.86;57.39;101378.59;5046661;28;20521;-50
2022/10/26 01:22:14;;;;;;;1.70;1.48;;;;;;;18.86;57.25;101369.66;5046805;28;20037;-50
2022/10/26 01:25:07;;;;;;;3.20;1.67;;;;;;;18.85;57.16;101362.56;5045687;28;20026;-50
2022/10/26 01:27:40;;;;;;;2.60;1.67;;;;;;;18.84;57.04;101363.59;5046137;28;20033;-52
2022/10/26 01:30:21;;;;;;;2.20;1.55;;;;;;;18.83;57.33;101373.53;5045203;28;20024;-50
2022/10/26 01:33:09;;;;;;;2.55;1.50;;;;;;;18.83;57.17;101368.13;5046435;28;20032;-50
2022/10/26 01:35:39;;;;;;;2.92;1.48;;;;;;;18.82;57.15;101363.75;5045763;28;20029;-53
2022/10/26 01:38:10;;;;;;;1.65;1.40;;;;;;;18.82;57.17;101365.56;5046269;28;20088;-52
2022/10/26 01:40:44;;;;;;;2.28;1.60;;;;;;;18.82;57.35;101360.19;5046686;28;20025;-53
2022/10/26 01:43:10;;;;;;;2.42;1.40;;;;;;;18.80;57.08;101349.56;5047255;28;20026;-55
2022/10/26 01:45:39;;;;;;;1.75;1.30;;;;;;;18.80;57.28;101352.28;5064753;28;20052;-53
2022/10/26 01:48:05;;;;;;;3.78;2.00;;;;;;;18.80;56.93;101349.56;5064894;28;20116;-53
2022/10/26 01:50:30;;;;;;;1.73;1.42;;;;;;;18.78;57.18;101346.22;5048478;28;20032;-51
2022/10/26 01:52:56;;;;;;;2.40;1.52;;;;;;;18.79;57.20;101344.34;5065883;28;20039;-54
2022/10/26 01:55:36;;;;;;;2.47;1.70;;;;;;;18.79;57.33;101344.34;5066453;28;20025;-54
2022/10/26 01:58:15;;;;;;;2.15;1.58;;;;;;;18.78;57.18;101340.81;5065384;28;20371;-54
2022/10/26 02:00:50;;;;;;;1.75;1.58;;;;;;;18.79;57.52;101336.28;5064318;28;20048;-51
2022/10/26 02:03:43;;;;;;;1.70;1.40;;;;;;;18.77;57.53;101336.41;5065865;28;20036;-54
2022/10/26 02:06:45;;;;;;;2.05;1.48;;;;;;;18.66;57.13;101296.25;5064005;28;20029;-55
2022/10/26 02:09:13;;;;;;;3.65;1.70;;;;;;;18.76;57.28;101321.25;5044291;28;20037;-48
2022/10/26 02:11:40;;;;;;;1.93;1.70;;;;;;;18.76;57.38;101320.41;5045834;28;20025;-50
2022/10/26 02:14:13;;;;;;;2.20;1.75;;;;;;;18.75;57.35;101316.03;5052236;28;20033;-48
2022/10/26 02:16:51;;;;;;;1.98;1.50;;;;;;;18.75;57.19;101321.44;5043918;28;20095;-51
2022/10/26 02:19:38;;;;;;;2.27;1.60;;;;;;;18.74;57.06;101317.91;5045681;28;20045;-48
2022/10/26 02:22:13;;;;;;;1.67;1.38;;;;;;;18.72;57.08;101309.09;5045932;28;20057;-48
2022/10/26 02:24:38;;;;;;;2.00;1.50;;;;;;;18.65;57.25;101297.25;5044607;28;20045;-52
2022/10/26 02:27:07;;;;;;;1.40;1.30;;;;;;;18.70;57.10;101298.50;5044182;28;20025;-51
2022/10/26 02:29:33;;;;;;;1.58;1.33;;;;;;;18.72;57.25;101301.03;5043593;28;20037;-47
2022/10/26 02:31:59;;;;;;;2.40;1.48;;;;;;;18.71;57.12;101293.97;5044471;28;20037;-49
2022/10/26 02:34:26;;;;;;;2.08;1.58;;;;;;;18.70;57.09;101292.28;5043898;28;20021;-47
2022/10/26 02:36:52;;;;;;;2.05;1.23;;;;;;;18.70;57.07;101289.59;5044479;28;20088;-48
2022/10/26 02:39:18;;;;;;;2.45;1.60;;;;;;;18.69;57.31;101288.75;5045344;28;20090;-50
2022/10/26 02:41:44;;;;;;;2.25;1.60;;;;;;;18.62;57.34;101279.56;5043925;28;20021;-49
2022/10/26 02:44:25;;;;;;;2.38;1.30;;;;;;;18.69;57.33;101285.16;5057014;28;20033;-51
2022/10/26 02:46:51;;;;;;;2.78;1.80;;;;;;;18.61;57.16;101283.25;5064166;28;20102;-53
2022/10/26 02:49:17;;;;;;;3.05;1.48;;;;;;;18.65;56.97;101303.50;5063588;28;20021;-49
2022/10/26 02:51:45;;;;;;;2.55;1.23;;;;;;;18.67;57.29;101312.25;5063973;28;20035;-49
2022/10/26 02:54:35;;;;;;;2.40;1.88;;;;;;;18.67;57.11;101314.09;5064838;28;20051;-52
2022/10/26 02:57:07;;;;;;;1.80;1.30;;;;;;;18.67;57.07;101309.56;5063607;28;20114;-49
2022/10/26 02:59:35;;;;;;;2.83;1.45;;;;;;;18.66;57.02;101307.03;5063179;28;20021;-52
2022/10/26 03:02:01;;;;;;;2.05;1.50;;;;;;;18.66;57.30;101305.19;5063797;28;20037;-52
2022/10/26 03:04:30;;;;;;;2.20;1.40;;;;;;;18.63;57.36;101299.25;5063367;28;20268;-49
2022/10/26 03:06:55;;;;;;;2.05;1.50;;;;;;;18.62;57.00;101294.88;5064682;28;20088;-49
2022/10/26 03:09:21;;;;;;;2.65;1.33;;;;;;;18.65;56.95;101303.50;5064439;28;20025;-50
2022/10/26 03:11:46;;;;;;;2.40;1.63;;;;;;;18.64;57.14;101293.69;5064605;28;20493;-46
2022/10/26 03:14:11;;;;;;;3.50;1.73;;;;;;;18.64;56.98;101300.94;5062490;28;20036;-51
2022/10/26 03:16:36;;;;;;;2.03;1.42;;;;;;;18.63;56.99;101292.00;5064825;28;20029;-52
2022/10/26 03:19:02;;;;;;;3.40;1.52;;;;;;;18.64;57.04;101298.25;5064179;28;20029;-48
2022/10/26 03:21:27;;;;;;;2.33;1.40;;;;;;;18.58;57.37;101286.25;5064677;28;20040;-49
2022/10/26 03:23:53;;;;;;;2.05;1.48;;;;;;;18.63;57.03;101292.00;5063919;28;20044;-49
2022/10/26 03:26:18;;;;;;;2.08;1.52;;;;;;;18.63;57.06;101293.88;5064323;28;20630;-52
2022/10/26 03:28:43;;;;;;;1.65;1.25;;;;;;;18.62;56.93;101281.41;5063290;28;20041;-50
2022/10/26 03:31:08;;;;;;;2.35;1.70;;;;;;;18.62;57.23;101287.63;5064514;28;20104;-48
2022/10/26 03:33:34;;;;;;;1.90;1.70;;;;;;;18.62;57.32;101284.09;5063800;28;20021;-47
2022/10/26 03:35:59;;;;;;;1.80;1.50;;;;;;;18.62;57.67;101282.25;5064488;28;20021;-51
2022/10/26 03:38:24;;;;;;;1.83;1.27;;;;;;;18.61;56.99;101279.72;5063914;28;20085;-51
2022/10/26 03:40:49;;;;;;;1.75;1.40;;;;;;;18.60;57.13;101281.56;5064358;28;20033;-52
2022/10/26 03:43:15;;;;;;;2.38;1.70;;;;;;;18.60;57.30;101284.25;5063961;28;20028;-50
2022/10/26 03:45:40;;;;;;;2.58;1.50;;;;;;;18.61;57.02;101287.81;5063384;28;20371;-53
2022/10/26 03:48:05;;;;;;;2.55;1.50;;;;;;;18.60;57.01;101283.41;5063824;28;20048;-53
2022/10/26 03:50:30;;;;;;;1.95;1.45;;;;;;;18.56;57.00;101276.63;5063979;28;20118;-51
2022/10/26 03:52:56;;;;;;;2.15;1.60;;;;;;;18.60;57.18;101286.09;5063598;28;20025;-49
2022/10/26 03:55:21;;;;;;;1.58;1.27;;;;;;;18.59;57.07;101271.78;5064073;28;20052;-53
2022/10/26 03:57:46;;;;;;;2.70;1.63;;;;;;;18.58;57.22;101271.97;5062975;28;20043;-53
2022/10/26 04:00:14;;;;;;;1.88;1.33;;;;;;;18.59;57.47;101270.94;5059342;28;20045;-50
2022/10/26 04:02:40;;;;;;;2.00;1.52;;;;;;;18.56;57.32;101266.72;5063907;28;20032;-50
2022/10/26 04:05:06;;;;;;;1.55;1.13;;;;;;;18.58;57.37;101264.72;5063316;28;20092;-49
2022/10/26 04:07:32;;;;;;;2.67;1.50;;;;;;;18.56;57.01;101264.00;5063452;28;20052;-48
2022/10/26 04:09:57;;;;;;;1.75;1.30;;;;;;;18.31;57.05;101224.47;5063738;28;20029;-50
2022/10/26 04:12:22;;;;;;;2.88;1.80;;;;;;;18.54;57.16;101265.19;5062273;28;20040;-52
2022/10/26 04:14:47;;;;;;;3.65;2.35;;;;;;;18.57;57.21;101273.81;5044966;28;20025;-50
2022/10/26 04:17:13;;;;;;;2.15;1.50;;;;;;;18.30;57.15;101230.84;5043642;28;20065;-55
2022/10/26 04:19:38;;;;;;;3.17;1.52;;;;;;;18.57;57.14;101275.66;5042028;28;20025;-51
2022/10/26 04:22:03;;;;;;;2.13;1.52;;;;;;;18.57;57.17;101275.66;5043176;28;20085;-53
2022/10/26 04:24:28;;;;;;;1.75;1.38;;;;;;;18.57;57.23;101275.66;5043035;28;20021;-53
2022/10/26 04:26:54;;;;;;;3.08;1.55;;;;;;;18.56;57.42;101277.47;5043414;28;20055;-52
2022/10/26 04:29:19;;;;;;;2.25;1.40;;;;;;;18.57;57.28;101275.66;5042006;28;20033;-54
2022/10/26 04:31:44;;;;;;;1.60;1.30;;;;;;;18.56;57.40;101272.09;5043425;28;20077;-52
2022/10/26 04:34:09;;;;;;;1.52;1.15;;;;;;;18.57;57.47;101275.66;5054764;28;20040;-53
2022/10/26 04:36:35;;;;;;;1.50;1.40;;;;;;;18.55;57.53;101270.41;5063701;28;20032;-50
2022/10/26 04:39:00;;;;;;;2.05;1.50;;;;;;;18.56;57.31;101263.19;5061933;28;20032;-53
2022/10/26 04:41:26;;;;;;;2.25;1.48;;;;;;;18.28;57.32;101220.25;5064527;28;20046;-52
2022/10/26 04:43:51;;;;;;;1.83;1.40;;;;;;;18.56;57.34;101264.00;5077491;28;20021;-50
2022/10/26 04:46:16;;;;;;;1.83;1.33;;;;;;;18.57;57.16;101259.50;5067696;28;20032;-53
2022/10/26 04:48:41;;;;;;;2.22;1.50;;;;;;;18.56;57.60;101264.00;5066744;28;20548;-51
2022/10/26 04:51:07;;;;;;;1.67;1.35;;;;;;;18.57;57.49;101259.50;5067526;28;20474;-54
2022/10/26 04:53:32;;;;;;;2.55;1.70;;;;;;;18.57;57.19;101268.44;5066846;28;20094;-51
2022/10/26 04:56:01;;;;;;;1.90;1.60;;;;;;;18.49;57.48;101255.75;5082111;28;20025;-52
2022/10/26 04:58:27;;;;;;;1.88;1.60;;;;;;;18.57;57.52;101270.28;5066259;28;20047;-51
2022/10/26 05:00:52;;;;;;;1.90;1.63;;;;;;;18.57;57.41;101267.59;5066860;28;20048;-50
2022/10/26 05:03:18;;;;;;;2.90;1.58;;;;;;;18.58;57.58;101271.97;5066899;28;20056;-52
2022/10/26 05:05:43;;;;;;;2.40;1.65;;;;;;;18.56;57.64;101271.25;5062846;28;20072;-53
2022/10/26 05:08:08;;;;;;;2.67;1.52;;;;;;;18.56;57.50;101264.00;5060712;28;20028;-51
2022/10/26 05:10:33;;;;;;;2.83;1.38;;;;;;;18.57;57.36;101268.44;5066911;28;20032;-55
2022/10/26 05:12:59;;;;;;;2.53;1.65;;;;;;;18.55;57.78;101258.78;5063992;28;20021;-50
2022/10/26 05:15:25;;;;;;;2.08;1.58;;;;;;;18.56;57.66;101261.31;5044799;28;20051;-50
2022/10/26 05:17:55;;;;;;;1.63;1.40;;;;;;;18.57;57.34;101257.66;5046871;28;20025;-51
2022/10/26 05:20:20;;;;;;;2.25;1.23;;;;;;;18.58;57.54;101264.72;5048949;28;20526;-54
2022/10/26 05:22:51;;;;;;;2.55;1.73;;;;;;;18.60;57.59;101269.94;5061545;28;20041;-53
2022/10/26 05:25:16;;;;;;;2.10;1.58;;;;;;;18.59;57.85;101257.47;5046542;28;20036;-53
2022/10/26 05:27:42;;;;;;;2.50;1.63;;;;;;;18.56;57.96;101255.94;5058980;28;20061;-50
2022/10/26 05:30:07;;;;;;;3.58;1.70;;;;;;;18.59;57.59;101255.63;5065612;28;20039;-52
2022/10/26 05:32:33;;;;;;;1.88;1.35;;;;;;;18.60;57.87;101251.09;5061409;28;20035;-51
2022/10/26 05:34:58;;;;;;;2.15;1.70;;;;;;;18.59;57.68;101250.25;5060750;28;20021;-53
2022/10/26 05:37:23;;;;;;;2.05;1.35;;;;;;;18.61;58.03;101252.78;5066364;28;20044;-55
2022/10/26 05:39:48;;;;;;;2.85;1.42;;;;;;;18.61;58.02;101252.78;5047963;28;20026;-52
2022/10/26 05:42:14;;;;;;;2.78;1.70;;;;;;;18.61;57.93;101255.50;5065081;28;20032;-53
2022/10/26 05:44:39;;;;;;;2.55;1.52;;;;;;;18.61;58.15;101256.34;5065062;28;20029;-51
2022/10/26 05:47:05;;;;;;;4.38;1.70;;;;;;;18.58;58.05;101250.41;5066688;28;20680;-49
2022/10/26 05:49:30;;;;;;;2.17;1.55;;;;;;;18.61;57.96;101261.72;5065854;28;20032;-50
2022/10/26 05:51:55;;;;;;;2.60;1.92;;;;;;;18.59;57.93;101258.31;5066174;28;20385;-55
2022/10/26 05:54:21;;;;;;;2.90;1.80;;;;;;;18.61;58.37;101261.72;5065762;28;20544;-52
2022/10/26 05:56:46;;;;;;;1.58;1.40;;;;;;;18.44;58.36;101233.00;5051317;28;20037;-54
2022/10/26 05:59:14;;;;;;;2.90;1.60;;;;;;;18.63;58.07;101258.84;5045099;28;20029;-49
2022/10/26 06:02:13;;;;;;;2.22;1.55;;;;;;;18.62;58.00;101258.00;5046023;28;20033;-59
2022/10/26 06:04:40;;;;;;;1.95;1.30;;;;;;;18.62;58.22;101249.94;5046058;28;20048;-58
2022/10/26 06:07:11;;;;;;;1.55;1.35;;;;;;;18.62;58.21;101255.31;5058557;28;20037;-59
2022/10/26 06:09:37;;;;;;;2.03;1.60;;;;;;;18.61;58.70;101255.50;5080405;28;20086;-58
2022/10/26 06:12:03;;;;;;;1.95;1.40;;;;;;;18.61;58.62;101260.88;5065731;28;20116;-59
2022/10/26 06:14:28;;;;;;;2.50;1.35;;;;;;;18.62;58.43;101265.25;5057663;28;20037;-60
2022/10/26 06:17:13;;;;;;;2.25;1.33;;;;;;;18.55;58.48;101250.72;5055756;28;20033;-58
2022/10/26 06:20:17;;;;;;;3.53;1.40;;;;;;;18.61;58.60;101267.09;5045311;28;20029;-59
2022/10/26 06:22:53;;;;;;;2.88;1.40;;;;;;;18.61;58.84;101264.41;4981162;28;20029;-59
2022/10/26 06:25:56;;;;;;;1.58;1.35;;;;;;;18.62;58.71;101267.94;4981228;28;20035;-60
2022/10/26 06:28:39;;;;;;;3.28;1.85;;;;;;;18.62;58.82;101271.47;4981452;28;20034;-59
2022/10/26 06:31:05;;;;;;;2.45;1.50;;;;;;;18.61;58.79;101275.19;4960373;28;20031;-59
2022/10/26 06:33:30;;;;;;;2.30;1.50;;;;;;;18.61;58.55;101280.56;4983094;28;20443;-59
2022/10/26 06:36:04;;;;;;;2.13;1.90;;;;;;;18.62;58.64;101279.56;4982953;28;20114;-59
2022/10/26 06:38:32;;;;;;;2.67;1.52;;;;;;;18.61;58.84;101285.97;4982630;28;20066;-53
2022/10/26 06:40:57;;;;;;;2.60;1.48;;;;;;;18.63;58.90;101283.09;4982906;28;20609;-60
2022/10/26 06:43:25;;;;;;;2.63;1.40;;;;;;;18.64;58.54;101282.09;4982019;28;20098;-60
2022/10/26 06:46:09;;;;;;;2.42;1.85;;;;;;;18.64;58.75;101284.78;4982860;28;20041;-59
2022/10/26 06:48:46;;;;;;;1.65;1.23;;;;;;;18.57;58.78;101279.19;4981646;28;20038;-59
2022/10/26 06:51:14;;;;;;;2.08;1.60;;;;;;;18.65;58.83;101292.72;4966992;28;20066;-59
2022/10/26 06:53:49;;;;;;;2.30;1.65;;;;;;;18.66;58.73;101285.47;4981131;28;20042;-49
2022/10/26 06:56:15;;;;;;;2.17;1.40;;;;;;;18.67;58.68;101279.09;5010050;28;20033;-49
2022/10/26 06:58:40;;;;;;;2.47;1.40;;;;;;;18.67;58.50;101274.53;5063809;28;20052;-53
2022/10/26 07:01:06;;;;;;;2.13;1.58;;;;;;;18.66;58.40;101272.00;5062005;28;20049;-52
2022/10/26 07:03:31;;;;;;;2.72;1.50;;;;;;;18.67;58.62;101276.38;5064572;28;20043;-52
2022/10/26 07:05:57;;;;;;;2.08;1.48;;;;;;;18.66;58.19;101272.00;5064651;28;20665;-49
2022/10/26 07:08:22;;;;;;;2.15;1.63;;;;;;;18.67;58.58;101277.22;5064251;28;20037;-50
2022/10/26 07:10:47;;;;;;;1.75;1.42;;;;;;;18.69;58.57;101274.38;5063400;28;20036;-49
2022/10/26 07:13:12;;;;;;;2.40;1.67;;;;;;;18.69;58.35;101269.88;5063183;28;20036;-51
2022/10/26 07:15:39;;;;;;;2.47;1.30;;;;;;;18.69;58.36;101269.88;5063629;28;20036;-51
2022/10/26 07:18:05;;;;;;;6.80;2.10;;;;;;;18.71;58.39;101272.41;5064265;28;20028;-49
2022/10/26 07:20:35;;;;;;;2.40;1.80;;;;;;;18.65;58.32;101256.88;5063001;28;20032;-51
2022/10/26 07:23:01;;;;;;;1.67;1.38;;;;;;;18.73;57.94;101273.97;5064001;28;20029;-52
2022/10/26 07:25:27;;;;;;;3.08;1.55;;;;;;;18.60;57.97;101249.22;5064114;28;20032;-51
2022/10/26 07:27:57;;;;;;;2.42;1.50;;;;;;;18.73;57.82;101273.97;5063987;28;20059;-48
2022/10/26 07:30:22;;;;;;;2.25;1.40;;;;;;;18.73;57.83;101276.66;5063238;28;20029;-53
2022/10/26 07:32:47;;;;;;;1.88;1.30;;;;;;;18.67;58.08;101261.06;5064168;28;20031;-50
2022/10/26 07:35:13;;;;;;;2.35;1.45;;;;;;;18.76;57.91;101280.00;5063785;28;20025;-50
2022/10/26 07:37:38;;;;;;;2.17;1.85;;;;;;;18.76;58.26;101285.41;5063968;28;20044;-51
2022/10/26 07:40:05;;;;;;;2.25;1.73;;;;;;;18.75;57.68;101284.56;5063658;28;20059;-50
2022/10/26 07:42:30;;;;;;;2.42;1.48;;;;;;;18.76;57.95;101290.78;5062758;28;20032;-50
2022/10/26 07:44:55;;;;;;;3.50;1.92;;;;;;;18.76;57.75;101293.47;5062920;28;20091;-49
2022/10/26 07:47:21;;;;;;;3.20;1.80;;;;;;;18.63;57.98;101275.84;5064150;28;20112;-53
2022/10/26 07:49:46;;;;;;;1.90;1.40;;;;;;;18.77;58.01;101292.47;5063742;28;20025;-52
2022/10/26 07:52:11;;;;;;;1.80;1.50;;;;;;;18.77;57.86;101300.56;5064173;28;20020;-50
2022/10/26 07:54:36;;;;;;;3.15;1.27;;;;;;;18.77;57.79;101292.47;5063606;28;20104;-51
2022/10/26 07:57:02;;;;;;;1.73;1.30;;;;;;;18.81;57.71;101291.16;5045667;28;20036;-54
2022/10/26 07:59:27;;;;;;;2.38;1.38;;;;;;;18.78;57.81;101286.09;5042361;28;20029;-49
2022/10/26 08:01:53;;;;;;;2.40;1.60;;;;;;;18.80;57.82;101276.84;5044115;28;20083;-50
2022/10/26 08:04:18;;;;;;;2.20;1.15;;;;;;;18.91;57.62;101295.44;5043409;28;20109;-51
2022/10/26 08:06:43;;;;;;;2.33;1.48;;;;;;;18.96;57.38;101292.28;5044034;28;20025;-51
2022/10/26 08:09:08;;;;;;;2.15;1.35;;;;;;;19.00;57.35;101299.03;5055297;28;20040;-50
2022/10/26 08:11:35;;;;;;;1.67;1.30;;;;;;;19.07;57.45;101296.53;5063546;28;20033;-51
2022/10/26 08:14:01;;;;;;;1.63;1.40;;;;;;;19.11;57.00;101305.97;5061724;28;20032;-50
2022/10/26 08:16:27;;;;;;;2.15;1.27;;;;;;;19.14;57.01;101305.66;5063444;28;20024;-51
2022/10/26 08:18:52;;;;;;;2.00;1.20;;;;;;;19.17;57.09;101303.50;5063248;28;20032;-53
2022/10/26 08:21:17;;;;;;;2.92;1.77;;;;;;;19.21;56.66;101304.88;5063383;28;20021;-56
2022/10/26 08:23:42;;;;;;;1.88;1.40;;;;;;;19.26;56.90;101311.63;5063055;28;20028;-54
2022/10/26 08:26:10;;;;;;;2.35;1.58;;;;;;;19.28;56.78;101305.06;5063370;28;20056;-54
2022/10/26 08:28:36;;;;;;;3.33;1.60;;;;;;;19.32;56.59;101317.22;5062558;28;20120;-53
2022/10/26 08:31:01;;;;;;;2.30;1.30;;;;;;;19.36;56.72;101309.66;5062767;28;20037;-56
2022/10/26 08:33:26;;;;;;;3.30;1.60;;;;;;;19.39;56.67;101312.88;5063261;28;20064;-55
2022/10/26 08:35:56;;;;;;;3.80;1.63;;;;;;;19.42;56.54;101309.00;5063180;28;20044;-55
2022/10/26 08:38:21;;;;;;;1.20;1.10;;;;;;;19.37;56.05;101290.63;5061493;28;20024;-55
2022/10/26 08:40:46;;;;;;;2.58;1.35;;;;;;;19.46;55.87;101297.75;5063345;28;20060;-53
2022/10/26 08:43:26;;;;;;;2.30;1.50;;;;;;;19.56;56.09;101312.94;5062065;28;20565;-53
2022/10/26 08:45:59;;;;;;;1.88;1.55;;;;;;;19.58;55.95;101317.16;5063045;28;20057;-53
2022/10/26 08:48:34;;;;;;;1.98;1.23;;;;;;;19.64;55.77;101318.41;5061897;28;20466;-54
2022/10/26 08:51:07;;;;;;;1.42;1.13;;;;;;;19.60;55.45;101311.59;5062106;28;20523;-54
2022/10/26 08:53:38;;;;;;;3.33;1.38;;;;;;;19.72;55.48;101330.06;5061523;28;20032;-53
2022/10/26 08:56:14;;;;;;;2.30;1.38;;;;;;;19.79;55.53;101337.47;5054922;28;20056;-55
2022/10/26 08:58:46;;;;;;;2.92;1.40;;;;;;;19.81;54.89;101339.03;5060830;28;20421;-55
2022/10/26 09:01:11;;;;;;;1.83;1.23;;;;;;;19.84;54.82;101340.56;5061577;28;20099;-53
2022/10/26 09:03:36;;;;;;;1.73;1.30;;;;;;;19.87;55.16;101345.59;5062932;28;20474;-53
2022/10/26 09:06:23;;;;;;;1.52;0.98;;;;;;;19.88;54.70;101345.47;5063287;28;20029;-50
2022/10/26 09:09:28;;;;;;;1.90;1.40;;;;;;;19.88;54.82;101331.97;5062527;28;20025;-55
2022/10/26 09:12:00;;;;;;;1.38;1.08;;;;;;;19.79;54.47;101318.59;5062914;28;20051;-53
2022/10/26 09:14:42;;;;;;;1.75;1.20;;;;;;;19.88;54.92;101334.66;5061985;28;20025;-52
2022/10/26 09:17:35;;;;;;;2.95;1.55;;;;;;;19.87;54.83;101329.41;5063080;28;20025;-49
2022/10/26 09:20:09;;;;;;;2.70;1.52;;;;;;;19.89;54.79;101346.28;5062480;28;20029;-50
2022/10/26 09:22:41;;;;;;;3.25;1.17;;;;;;;19.90;54.54;101347.97;5061566;28;20035;-51
2022/10/26 09:25:17;;;;;;;1.70;1.10;;;;;;;19.89;54.89;101344.44;5064169;28;20515;-52
2022/10/26 09:27:44;;;;;;;1.80;1.15;;;;;;;19.88;54.58;101323.88;5065887;28;20047;-50
2022/10/26 09:30:15;;;;;;;1.60;1.45;;;;;;;19.87;54.70;101335.66;5064405;28;20071;-52
2022/10/26 09:32:45;;;;;;;2.10;1.52;;;;;;;19.86;54.87;101349.31;5066575;28;20029;-50
2022/10/26 09:35:24;;;;;;;1.75;1.20;;;;;;;19.86;54.83;101352.84;5065258;28;20176;-49
2022/10/26 09:38:14;;;;;;;1.35;1.25;;;;;;;19.86;54.89;101347.47;5065415;28;20044;-51
2022/10/26 09:40:47;;;;;;;1.65;1.30;;;;;;;19.87;54.69;101353.69;5057816;28;20118;-50
2022/10/26 09:43:18;;;;;;;1.75;1.30;;;;;;;19.81;54.71;101349.81;5065049;28;20060;-48
2022/10/26 09:45:46;;;;;;;1.73;1.30;;;;;;;19.85;54.56;101351.19;5065678;28;20047;-49
2022/10/26 09:48:26;;;;;;;1.70;1.15;;;;;;;19.85;54.75;101353.03;5066010;28;20040;-52
2022/10/26 09:50:52;;;;;;;1.60;1.20;;;;;;;19.84;54.92;101356.75;5064861;28;20105;-49
2022/10/26 09:53:17;;;;;;;1.83;1.33;;;;;;;19.80;54.91;101358.09;5065799;28;20033;-54
2022/10/26 09:55:47;;;;;;;1.55;1.30;;;;;;;19.82;54.96;101353.34;5058956;28;20466;-51
2022/10/26 09:58:19;;;;;;;1.92;0.95;;;;;;;19.80;54.74;101358.94;5058955;28;20059;-50
2022/10/26 10:00:45;;;;;;;1.77;1.13;;;;;;;19.72;55.04;101335.44;5065402;28;20045;-49
2022/10/26 10:03:24;;;;;;;1.58;1.15;;;;;;;19.75;54.72;101333.41;5064616;28;20048;-52
2022/10/26 10:05:49;;;;;;;1.20;1.10;;;;;;;19.77;55.05;101343.06;5065780;28;20346;-51
2022/10/26 10:08:22;;;;;;;2.95;1.27;;;;;;;19.77;55.29;101344.91;5065473;28;20570;-55
2022/10/26 10:11:08;;;;;;;2.28;1.52;;;;;;;19.66;54.81;101321.75;5065810;28;20021;-52
2022/10/26 10:13:38;;;;;;;1.52;1.20;;;;;;;19.75;54.98;101350.44;5080483;28;20096;-54
2022/10/26 10:16:12;;;;;;;1.55;1.10;;;;;;;19.75;55.01;101350.44;5065363;28;20017;-50
2022/10/26 10:18:39;;;;;;;2.28;1.20;;;;;;;19.77;55.16;101358.41;5065491;28;20025;-50
2022/10/26 10:21:05;;;;;;;1.30;1.20;;;;;;;19.78;55.03;101354.69;5064459;28;20052;-54
2022/10/26 10:23:35;;;;;;;2.35;1.10;;;;;;;19.78;55.30;101362.78;5062441;28;20055;-54
2022/10/26 10:26:07;;;;;;;1.23;1.10;;;;;;;19.78;55.33;101354.69;5064355;28;20048;-52
2022/10/26 10:28:33;;;;;;;2.10;1.38;;;;;;;19.76;55.42;101360.25;5062641;28;20025;-53
2022/10/26 10:31:04;;;;;;;1.60;1.30;;;;;;;19.82;55.64;101366.84;5065113;28;20096;-53
2022/10/26 10:33:37;;;;;;;4.13;2.25;;;;;;;19.82;55.51;101364.16;5065148;28;20035;-51
2022/10/26 10:36:06;;;;;;;1.92;1.58;;;;;;;19.84;55.51;101372.94;5064753;28;20021;-54
2022/10/26 10:38:36;;;;;;;2.67;1.07;;;;;;;19.85;55.57;101385.41;5064651;28;20024;-54
2022/10/26 10:41:03;;;;;;;2.20;1.45;;;;;;;19.77;55.68;101370.03;5065548;28;20269;-53
2022/10/26 10:43:28;;;;;;;3.35;1.10;;;;;;;19.75;55.63;101371.19;5064234;28;20033;-54
2022/10/26 10:45:55;;;;;;;1.90;1.02;;;;;;;19.84;55.78;101405.31;5064955;28;20025;-52
2022/10/26 10:48:26;;;;;;;1.98;1.20;;;;;;;19.87;55.52;101411.22;5064758;28;20055;-56
2022/10/26 10:51:03;;;;;;;1.58;1.20;;;;;;;19.89;55.56;101400.28;5065059;28;20028;-52
2022/10/26 10:53:57;;;;;;;2.17;1.55;;;;;;;19.87;55.88;101402.28;5063267;28;20028;-57
2022/10/26 10:56:41;;;;;;;1.50;1.25;;;;;;;19.87;56.17;101407.66;5053979;28;20487;-56
2022/10/26 10:59:15;;;;;;;1.60;1.30;;;;;;;19.87;56.21;101413.06;5062135;28;20052;-56
2022/10/26 11:01:49;;;;;;;2.90;1.55;;;;;;;19.86;56.23;101406.81;5064692;28;20066;-56
2022/10/26 11:04:39;;;;;;;1.45;1.20;;;;;;;19.87;56.19;101413.91;5063281;28;20506;-52
2022/10/26 11:07:05;;;;;;;1.42;1.20;;;;;;;19.86;56.26;101412.22;5043440;28;20025;-57
2022/10/26 11:09:32;;;;;;;1.77;1.15;;;;;;;19.86;56.17;101414.91;5043034;28;20033;-51
2022/10/26 11:12:22;;;;;;;2.88;1.52;;;;;;;19.90;56.51;101420.84;5043458;28;20025;-53
2022/10/26 11:14:52;;;;;;;1.38;1.10;;;;;;;19.89;56.37;101413.75;5042587;28;20085;-56
2022/10/26 11:17:34;;;;;;;2.35;1.38;;;;;;;19.92;56.37;101419.69;5051172;28;20029;-57
2022/10/26 11:20:03;;;;;;;2.03;1.27;;;;;;;19.93;56.48;101423.22;5064230;28;20021;-55
2022/10/26 11:22:59;;;;;;;1.50;1.00;;;;;;;19.94;56.43;101424.91;5063482;28;20100;-56
2022/10/26 11:25:27;;;;;;;2.47;1.20;;;;;;;19.94;56.45;101428.44;5062860;28;20032;-55
2022/10/26 11:28:04;;;;;;;2.47;0.90;;;;;;;19.95;56.89;101437.38;5062910;28;20045;-53
2022/10/26 11:30:32;;;;;;;2.42;1.23;;;;;;;19.95;56.88;101440.09;5062375;28;20020;-54
2022/10/26 11:33:05;;;;;;;1.63;1.20;;;;;;;19.96;56.98;101439.06;5064246;28;20025;-54
2022/10/26 11:35:42;;;;;;;1.85;1.20;;;;;;;19.97;56.98;101451.59;5064396;28;20351;-54